sensor_id;sensor_type;location;lat;lon;timestamp;temperature;humidity
17715;DHT22;8977;50.902;4.314;2023-03-23T00:01:06;14.80;99.90
17715;DHT22;8977;50.902;4.314;2023-03-23T00:03:35;14.80;99.90
17715;DHT22;8977;50.902;4.314;2023-03-23T00:06:03;14.90;99.90
17715;DHT22;8977;50.902;4.314;2023-03-23T00:08:32;14.90;99.90
17715;DHT22;8977;50.902;4.314;2023-03-23T00:11:03;14.90;99.90
17715;DHT22;8977;50.902;4.314;2023-03-23T00:13:30;14.90;99.90
17715;DHT22;8977;50.902;4.314;2023-03-23T00:15:58;14.90;99.90
17715;DHT22;8977;50.902;4.314;2023-03-23T00:18:26;14.80;99.90
17715;DHT22;8977;50.902;4.314;2023-03-23T00:20:55;14.80;99.90
17715;DHT22;8977;50.902;4.314;2023-03-23T00:23:24;14.80;99.90
17715;DHT22;8977;50.902;4.314;2023-03-23T00:25:53;14.90;99.90
17715;DHT22;8977;50.902;4.314;2023-03-23T00:28:23;14.90;99.90
17715;DHT22;8977;50.902;4.314;2023-03-23T00:30:55;14.80;99.90
17715;DHT22;8977;50.902;4.314;2023-03-23T00:33:24;14.80;99.90
17715;DHT22;8977;50.902;4.314;2023-03-23T00:35:54;14.90;99.90
17715;DHT22;8977;50.902;4.314;2023-03-23T00:38:22;14.80;99.90
17715;DHT22;8977;50.902;4.314;2023-03-23T00:40:50;14.90;99.90
17715;DHT22;8977;50.902;4.314;2023-03-23T00:43:18;14.90;99.90
17715;DHT22;8977;50.902;4.314;2023-03-23T00:45:46;14.90;99.90
17715;DHT22;8977;50.902;4.314;2023-03-23T00:48:18;14.90;99.90
17715;DHT22;8977;50.902;4.314;2023-03-23T00:50:45;15.00;99.90
17715;DHT22;8977;50.902;4.314;2023-03-23T00:53:13;14.90;99.90
17715;DHT22;8977;50.902;4.314;2023-03-23T00:55:40;14.90;99.90
17715;DHT22;8977;50.902;4.314;2023-03-23T00:58:08;14.90;99.90
17715;DHT22;8977;50.902;4.314;2023-03-23T01:00:35;14.90;99.90
17715;DHT22;8977;50.902;4.314;2023-03-23T01:03:01;14.90;99.90
17715;DHT22;8977;50.902;4.314;2023-03-23T01:05:28;14.80;99.90
17715;DHT22;8977;50.902;4.314;2023-03-23T01:07:57;14.80;99.90
17715;DHT22;8977;50.902;4.314;2023-03-23T01:10:26;14.90;99.90
17715;DHT22;8977;50.902;4.314;2023-03-23T01:12:53;14.90;99.90
17715;DHT22;8977;50.902;4.314;2023-03-23T01:15:20;14.90;99.90
17715;DHT22;8977;50.902;4.314;2023-03-23T01:17:47;14.90;99.90
17715;DHT22;8977;50.902;4.314;2023-03-23T01:20:15;14.90;99.90
17715;DHT22;8977;50.902;4.314;2023-03-23T01:22:42;14.90;99.90
17715;DHT22;8977;50.902;4.314;2023-03-23T01:25:11;14.80;99.90
17715;DHT22;8977;50.902;4.314;2023-03-23T01:27:40;14.80;99.90
17715;DHT22;8977;50.902;4.314;2023-03-23T01:30:09;14.90;99.90
17715;DHT22;8977;50.902;4.314;2023-03-23T01:32:37;14.90;99.90
17715;DHT22;8977;50.902;4.314;2023-03-23T01:35:05;14.80;99.90
17715;DHT22;8977;50.902;4.314;2023-03-23T01:37:32;14.80;99.90
17715;DHT22;8977;50.902;4.314;2023-03-23T01:39:59;14.90;99.90
17715;DHT22;8977;50.902;4.314;2023-03-23T01:42:30;14.80;99.90
17715;DHT22;8977;50.902;4.314;2023-03-23T01:45:27;14.80;99.90
17715;DHT22;8977;50.902;4.314;2023-03-23T01:48:00;14.90;99.90
17715;DHT22;8977;50.902;4.314;2023-03-23T01:50:31;14.80;99.90
17715;DHT22;8977;50.902;4.314;2023-03-23T01:53:01;14.80;99.90
17715;DHT22;8977;50.902;4.314;2023-03-23T01:55:34;14.80;99.90
17715;DHT22;8977;50.902;4.314;2023-03-23T01:58:04;14.90;99.90
17715;DHT22;8977;50.902;4.314;2023-03-23T02:00:34;14.90;99.90
17715;DHT22;8977;50.902;4.314;2023-03-23T02:03:03;15.00;99.90
17715;DHT22;8977;50.902;4.314;2023-03-23T02:05:34;14.80;99.90
17715;DHT22;8977;50.902;4.314;2023-03-23T02:08:04;14.90;99.90
17715;DHT22;8977;50.902;4.314;2023-03-23T02:10:35;14.90;99.90
17715;DHT22;8977;50.902;4.314;2023-03-23T02:13:04;14.90;99.90
17715;DHT22;8977;50.902;4.314;2023-03-23T02:15:39;14.90;99.90
17715;DHT22;8977;50.902;4.314;2023-03-23T02:18:16;14.80;99.90
17715;DHT22;8977;50.902;4.314;2023-03-23T02:21:05;14.80;99.90
17715;DHT22;8977;50.902;4.314;2023-03-23T02:23:54;14.80;99.90
17715;DHT22;8977;50.902;4.314;2023-03-23T02:26:35;14.80;99.90
17715;DHT22;8977;50.902;4.314;2023-03-23T02:29:16;14.80;99.90
17715;DHT22;8977;50.902;4.314;2023-03-23T02:32:00;14.90;99.90
17715;DHT22;8977;50.902;4.314;2023-03-23T02:34:37;14.80;99.90
17715;DHT22;8977;50.902;4.314;2023-03-23T02:37:09;14.90;99.90
17715;DHT22;8977;50.902;4.314;2023-03-23T02:39:42;14.90;99.90
17715;DHT22;8977;50.902;4.314;2023-03-23T02:42:14;14.80;99.90
17715;DHT22;8977;50.902;4.314;2023-03-23T02:44:44;14.90;99.90
17715;DHT22;8977;50.902;4.314;2023-03-23T02:47:16;14.80;99.90
17715;DHT22;8977;50.902;4.314;2023-03-23T02:49:47;14.80;99.90
17715;DHT22;8977;50.902;4.314;2023-03-23T02:52:19;14.90;99.90
17715;DHT22;8977;50.902;4.314;2023-03-23T02:54:49;14.80;99.90
17715;DHT22;8977;50.902;4.314;2023-03-23T02:57:17;14.70;99.90
17715;DHT22;8977;50.902;4.314;2023-03-23T02:59:45;14.70;99.90
17715;DHT22;8977;50.902;4.314;2023-03-23T03:02:14;14.80;99.90
17715;DHT22;8977;50.902;4.314;2023-03-23T03:04:48;14.70;99.90
17715;DHT22;8977;50.902;4.314;2023-03-23T03:07:35;14.70;99.90
17715;DHT22;8977;50.902;4.314;2023-03-23T03:10:10;14.70;99.90
17715;DHT22;8977;50.902;4.314;2023-03-23T03:12:44;14.70;99.90
17715;DHT22;8977;50.902;4.314;2023-03-23T03:15:21;14.70;99.90
17715;DHT22;8977;50.902;4.314;2023-03-23T03:17:55;14.70;99.90
17715;DHT22;8977;50.902;4.314;2023-03-23T03:20:26;14.70;99.90
17715;DHT22;8977;50.902;4.314;2023-03-23T03:22:56;14.70;99.90
17715;DHT22;8977;50.902;4.314;2023-03-23T03:25:23;14.70;99.90
17715;DHT22;8977;50.902;4.314;2023-03-23T03:27:53;14.90;99.90
17715;DHT22;8977;50.902;4.314;2023-03-23T03:30:25;14.90;99.90
17715;DHT22;8977;50.902;4.314;2023-03-23T03:32:54;14.90;99.90
17715;DHT22;8977;50.902;4.314;2023-03-23T03:35:21;14.80;99.90
17715;DHT22;8977;50.902;4.314;2023-03-23T03:37:50;14.70;99.90
17715;DHT22;8977;50.902;4.314;2023-03-23T03:40:20;14.70;99.90
17715;DHT22;8977;50.902;4.314;2023-03-23T03:42:48;14.70;99.90
17715;DHT22;8977;50.902;4.314;2023-03-23T03:45:17;14.70;99.90
17715;DHT22;8977;50.902;4.314;2023-03-23T03:47:45;14.70;99.90
17715;DHT22;8977;50.902;4.314;2023-03-23T03:50:12;14.70;99.90
17715;DHT22;8977;50.902;4.314;2023-03-23T03:52:39;14.70;99.90
17715;DHT22;8977;50.902;4.314;2023-03-23T03:55:09;14.70;99.90
17715;DHT22;8977;50.902;4.314;2023-03-23T03:57:37;14.70;99.90
17715;DHT22;8977;50.902;4.314;2023-03-23T04:00:06;14.70;99.90
17715;DHT22;8977;50.902;4.314;2023-03-23T04:02:41;14.70;99.90
17715;DHT22;8977;50.902;4.314;2023-03-23T04:05:08;14.80;99.90
17715;DHT22;8977;50.902;4.314;2023-03-23T04:07:37;14.70;99.90
17715;DHT22;8977;50.902;4.314;2023-03-23T04:10:06;14.70;99.90
17715;DHT22;8977;50.902;4.314;2023-03-23T04:12:35;14.70;99.90
17715;DHT22;8977;50.902;4.314;2023-03-23T04:15:03;14.70;99.90
17715;DHT22;8977;50.902;4.314;2023-03-23T04:17:30;14.70;99.90
17715;DHT22;8977;50.902;4.314;2023-03-23T04:19:57;14.80;99.90
17715;DHT22;8977;50.902;4.314;2023-03-23T04:22:27;14.70;99.90
17715;DHT22;8977;50.902;4.314;2023-03-23T04:24:57;14.70;99.90
17715;DHT22;8977;50.902;4.314;2023-03-23T04:27:26;14.70;99.90
17715;DHT22;8977;50.902;4.314;2023-03-23T04:29:56;14.70;99.90
17715;DHT22;8977;50.902;4.314;2023-03-23T04:32:24;14.60;99.90
17715;DHT22;8977;50.902;4.314;2023-03-23T04:34:55;14.70;99.90
17715;DHT22;8977;50.902;4.314;2023-03-23T04:37:23;14.70;99.90
17715;DHT22;8977;50.902;4.314;2023-03-23T04:39:54;14.70;99.90
17715;DHT22;8977;50.902;4.314;2023-03-23T04:42:27;14.70;99.90
17715;DHT22;8977;50.902;4.314;2023-03-23T04:44:55;14.70;99.90
17715;DHT22;8977;50.902;4.314;2023-03-23T04:47:23;14.80;99.90
17715;DHT22;8977;50.902;4.314;2023-03-23T04:49:51;14.80;99.90
17715;DHT22;8977;50.902;4.314;2023-03-23T04:52:18;14.90;99.90
17715;DHT22;8977;50.902;4.314;2023-03-23T04:54:46;14.90;99.90
17715;DHT22;8977;50.902;4.314;2023-03-23T04:57:13;14.70;99.90
17715;DHT22;8977;50.902;4.314;2023-03-23T04:59:42;14.70;99.90
17715;DHT22;8977;50.902;4.314;2023-03-23T05:02:10;14.70;99.90
17715;DHT22;8977;50.902;4.314;2023-03-23T05:04:39;14.60;99.90
17715;DHT22;8977;50.902;4.314;2023-03-23T05:07:06;14.70;99.90
17715;DHT22;8977;50.902;4.314;2023-03-23T05:09:34;14.70;99.90
17715;DHT22;8977;50.902;4.314;2023-03-23T05:12:04;14.60;99.90
17715;DHT22;8977;50.902;4.314;2023-03-23T05:14:31;14.60;99.90
17715;DHT22;8977;50.902;4.314;2023-03-23T05:16:58;14.60;99.90
17715;DHT22;8977;50.902;4.314;2023-03-23T05:19:27;14.70;99.90
17715;DHT22;8977;50.902;4.314;2023-03-23T05:21:57;14.70;99.90
17715;DHT22;8977;50.902;4.314;2023-03-23T05:24:29;14.70;99.90
17715;DHT22;8977;50.902;4.314;2023-03-23T05:26:58;14.70;99.90
17715;DHT22;8977;50.902;4.314;2023-03-23T05:29:25;14.60;99.90
17715;DHT22;8977;50.902;4.314;2023-03-23T05:31:52;14.50;99.90
17715;DHT22;8977;50.902;4.314;2023-03-23T05:34:21;14.50;99.90
17715;DHT22;8977;50.902;4.314;2023-03-23T05:36:49;14.60;99.90
17715;DHT22;8977;50.902;4.314;2023-03-23T05:39:18;14.60;99.90
17715;DHT22;8977;50.902;4.314;2023-03-23T05:41:45;14.50;99.90
17715;DHT22;8977;50.902;4.314;2023-03-23T05:44:13;14.60;99.90
17715;DHT22;8977;50.902;4.314;2023-03-23T05:46:40;14.50;99.90
17715;DHT22;8977;50.902;4.314;2023-03-23T05:49:07;14.60;99.90
17715;DHT22;8977;50.902;4.314;2023-03-23T05:51:34;14.70;99.90
17715;DHT22;8977;50.902;4.314;2023-03-23T05:54:03;14.80;99.90
17715;DHT22;8977;50.902;4.314;2023-03-23T05:56:31;14.80;99.90
17715;DHT22;8977;50.902;4.314;2023-03-23T05:58:58;14.80;99.90
17715;DHT22;8977;50.902;4.314;2023-03-23T06:01:25;14.70;99.90
17715;DHT22;8977;50.902;4.314;2023-03-23T06:03:52;14.60;99.90
17715;DHT22;8977;50.902;4.314;2023-03-23T06:06:24;14.70;99.90
17715;DHT22;8977;50.902;4.314;2023-03-23T06:08:50;14.70;99.90
17715;DHT22;8977;50.902;4.314;2023-03-23T06:11:19;14.60;99.90
17715;DHT22;8977;50.902;4.314;2023-03-23T06:13:45;14.60;99.90
17715;DHT22;8977;50.902;4.314;2023-03-23T06:16:13;14.60;99.90
17715;DHT22;8977;50.902;4.314;2023-03-23T06:18:40;14.70;99.90
17715;DHT22;8977;50.902;4.314;2023-03-23T06:21:08;14.70;99.90
17715;DHT22;8977;50.902;4.314;2023-03-23T06:23:35;14.70;99.90
17715;DHT22;8977;50.902;4.314;2023-03-23T06:26:04;14.70;99.90
17715;DHT22;8977;50.902;4.314;2023-03-23T06:28:34;14.60;99.90
17715;DHT22;8977;50.902;4.314;2023-03-23T06:31:02;14.70;99.90
17715;DHT22;8977;50.902;4.314;2023-03-23T06:33:30;14.60;99.90
17715;DHT22;8977;50.902;4.314;2023-03-23T06:35:57;14.70;99.90
17715;DHT22;8977;50.902;4.314;2023-03-23T06:38:25;14.70;99.90
17715;DHT22;8977;50.902;4.314;2023-03-23T06:40:52;14.70;99.90
17715;DHT22;8977;50.902;4.314;2023-03-23T06:43:19;14.60;99.90
17715;DHT22;8977;50.902;4.314;2023-03-23T06:45:48;14.60;99.90
17715;DHT22;8977;50.902;4.314;2023-03-23T06:48:15;14.60;99.90
17715;DHT22;8977;50.902;4.314;2023-03-23T06:50:43;14.50;99.90
17715;DHT22;8977;50.902;4.314;2023-03-23T06:53:10;14.50;99.90
17715;DHT22;8977;50.902;4.314;2023-03-23T06:55:38;14.40;99.90
17715;DHT22;8977;50.902;4.314;2023-03-23T06:58:06;14.30;99.90
17715;DHT22;8977;50.902;4.314;2023-03-23T07:00:33;14.20;99.90
17715;DHT22;8977;50.902;4.314;2023-03-23T07:03:02;14.10;99.90
17715;DHT22;8977;50.902;4.314;2023-03-23T07:05:29;14.20;99.90
17715;DHT22;8977;50.902;4.314;2023-03-23T07:07:56;14.10;99.90
17715;DHT22;8977;50.902;4.314;2023-03-23T07:10:23;14.10;99.90
17715;DHT22;8977;50.902;4.314;2023-03-23T07:12:50;13.80;99.90
17715;DHT22;8977;50.902;4.314;2023-03-23T07:15:17;13.80;99.90
17715;DHT22;8977;50.902;4.314;2023-03-23T07:17:44;13.80;99.90
17715;DHT22;8977;50.902;4.314;2023-03-23T07:20:12;13.80;99.90
17715;DHT22;8977;50.902;4.314;2023-03-23T07:22:40;13.90;99.90
17715;DHT22;8977;50.902;4.314;2023-03-23T07:25:07;13.80;99.90
17715;DHT22;8977;50.902;4.314;2023-03-23T07:27:34;13.80;99.90
17715;DHT22;8977;50.902;4.314;2023-03-23T07:30:01;13.70;99.90
17715;DHT22;8977;50.902;4.314;2023-03-23T07:32:28;13.40;99.90
17715;DHT22;8977;50.902;4.314;2023-03-23T07:34:55;13.40;99.90
17715;DHT22;8977;50.902;4.314;2023-03-23T07:37:24;13.50;99.90
17715;DHT22;8977;50.902;4.314;2023-03-23T07:39:51;13.50;99.90
17715;DHT22;8977;50.902;4.314;2023-03-23T07:42:18;13.50;99.90
17715;DHT22;8977;50.902;4.314;2023-03-23T07:44:45;13.60;99.90
17715;DHT22;8977;50.902;4.314;2023-03-23T07:47:12;13.60;99.90
17715;DHT22;8977;50.902;4.314;2023-03-23T07:49:39;13.60;99.90
17715;DHT22;8977;50.902;4.314;2023-03-23T07:52:06;13.70;99.90
17715;DHT22;8977;50.902;4.314;2023-03-23T07:54:35;13.70;99.90
17715;DHT22;8977;50.902;4.314;2023-03-23T07:57:02;13.80;99.90
17715;DHT22;8977;50.902;4.314;2023-03-23T07:59:29;13.80;99.90
17715;DHT22;8977;50.902;4.314;2023-03-23T08:01:57;13.80;99.90
17715;DHT22;8977;50.902;4.314;2023-03-23T08:04:24;13.80;99.90
17715;DHT22;8977;50.902;4.314;2023-03-23T08:06:52;13.90;99.90
17715;DHT22;8977;50.902;4.314;2023-03-23T08:09:19;13.90;99.90
17715;DHT22;8977;50.902;4.314;2023-03-23T08:11:47;14.00;99.90
17715;DHT22;8977;50.902;4.314;2023-03-23T08:14:14;14.10;99.90
17715;DHT22;8977;50.902;4.314;2023-03-23T08:16:41;14.00;99.90
17715;DHT22;8977;50.902;4.314;2023-03-23T08:19:08;14.00;99.90
17715;DHT22;8977;50.902;4.314;2023-03-23T08:21:35;14.10;99.90
17715;DHT22;8977;50.902;4.314;2023-03-23T08:24:02;14.10;99.90
17715;DHT22;8977;50.902;4.314;2023-03-23T08:26:30;14.00;99.90
17715;DHT22;8977;50.902;4.314;2023-03-23T08:28:59;14.00;99.90
17715;DHT22;8977;50.902;4.314;2023-03-23T08:31:25;14.00;99.90
17715;DHT22;8977;50.902;4.314;2023-03-23T08:33:52;14.00;99.90
17715;DHT22;8977;50.902;4.314;2023-03-23T08:36:22;14.00;99.90
17715;DHT22;8977;50.902;4.314;2023-03-23T08:38:49;13.90;99.90
17715;DHT22;8977;50.902;4.314;2023-03-23T08:41:17;13.90;99.90
17715;DHT22;8977;50.902;4.314;2023-03-23T08:43:44;13.90;99.90
17715;DHT22;8977;50.902;4.314;2023-03-23T08:46:13;13.90;99.90
17715;DHT22;8977;50.902;4.314;2023-03-23T08:48:39;13.90;99.90
17715;DHT22;8977;50.902;4.314;2023-03-23T08:51:07;13.90;99.90
17715;DHT22;8977;50.902;4.314;2023-03-23T08:53:34;13.90;99.90
17715;DHT22;8977;50.902;4.314;2023-03-23T08:56:06;13.90;99.90
17715;DHT22;8977;50.902;4.314;2023-03-23T08:58:33;14.10;99.90
17715;DHT22;8977;50.902;4.314;2023-03-23T09:01:01;14.10;99.90
17715;DHT22;8977;50.902;4.314;2023-03-23T09:03:29;14.00;99.90
17715;DHT22;8977;50.902;4.314;2023-03-23T09:05:58;13.90;99.90
17715;DHT22;8977;50.902;4.314;2023-03-23T09:08:26;14.00;99.90
17715;DHT22;8977;50.902;4.314;2023-03-23T09:10:54;14.10;99.90
17715;DHT22;8977;50.902;4.314;2023-03-23T09:13:22;14.00;99.90
17715;DHT22;8977;50.902;4.314;2023-03-23T09:15:49;14.00;99.90
17715;DHT22;8977;50.902;4.314;2023-03-23T09:18:16;14.00;99.90
17715;DHT22;8977;50.902;4.314;2023-03-23T09:20:45;14.00;99.90
17715;DHT22;8977;50.902;4.314;2023-03-23T09:23:14;14.00;99.90
17715;DHT22;8977;50.902;4.314;2023-03-23T09:25:41;14.10;99.90
17715;DHT22;8977;50.902;4.314;2023-03-23T09:28:08;14.10;99.90
17715;DHT22;8977;50.902;4.314;2023-03-23T09:30:36;14.20;99.90
17715;DHT22;8977;50.902;4.314;2023-03-23T09:33:04;14.20;99.90
17715;DHT22;8977;50.902;4.314;2023-03-23T09:35:32;14.30;99.90
17715;DHT22;8977;50.902;4.314;2023-03-23T09:38:01;14.30;99.90
17715;DHT22;8977;50.902;4.314;2023-03-23T09:40:32;14.30;99.90
17715;DHT22;8977;50.902;4.314;2023-03-23T09:43:16;14.30;99.90
17715;DHT22;8977;50.902;4.314;2023-03-23T09:45:51;14.50;99.90
17715;DHT22;8977;50.902;4.314;2023-03-23T09:48:42;14.50;99.90
17715;DHT22;8977;50.902;4.314;2023-03-23T09:51:20;14.50;99.90
17715;DHT22;8977;50.902;4.314;2023-03-23T09:53:52;14.50;99.90
17715;DHT22;8977;50.902;4.314;2023-03-23T09:56:20;14.50;99.90
17715;DHT22;8977;50.902;4.314;2023-03-23T09:58:51;14.60;99.90
17715;DHT22;8977;50.902;4.314;2023-03-23T10:01:25;14.60;99.90
17715;DHT22;8977;50.902;4.314;2023-03-23T10:03:59;14.70;99.90
17715;DHT22;8977;50.902;4.314;2023-03-23T10:06:28;14.70;99.90
17715;DHT22;8977;50.902;4.314;2023-03-23T10:08:59;14.70;99.90
17715;DHT22;8977;50.902;4.314;2023-03-23T10:11:33;14.70;99.90
17715;DHT22;8977;50.902;4.314;2023-03-23T10:14:15;14.70;99.90
17715;DHT22;8977;50.902;4.314;2023-03-23T10:16:49;14.70;99.90
17715;DHT22;8977;50.902;4.314;2023-03-23T10:19:25;14.70;99.90
17715;DHT22;8977;50.902;4.314;2023-03-23T10:21:58;14.70;99.90
17715;DHT22;8977;50.902;4.314;2023-03-23T10:24:33;14.70;99.90
17715;DHT22;8977;50.902;4.314;2023-03-23T10:27:09;14.80;99.90
17715;DHT22;8977;50.902;4.314;2023-03-23T10:29:42;14.80;99.90
17715;DHT22;8977;50.902;4.314;2023-03-23T10:32:13;14.90;99.90
17715;DHT22;8977;50.902;4.314;2023-03-23T10:34:42;14.90;99.90
17715;DHT22;8977;50.902;4.314;2023-03-23T10:37:13;14.90;99.90
17715;DHT22;8977;50.902;4.314;2023-03-23T10:39:47;14.90;99.90
17715;DHT22;8977;50.902;4.314;2023-03-23T10:42:22;15.00;99.90
17715;DHT22;8977;50.902;4.314;2023-03-23T10:44:50;14.90;99.90
17715;DHT22;8977;50.902;4.314;2023-03-23T10:47:17;14.90;99.90
17715;DHT22;8977;50.902;4.314;2023-03-23T10:49:47;14.90;99.90
17715;DHT22;8977;50.902;4.314;2023-03-23T10:52:25;15.00;99.90
17715;DHT22;8977;50.902;4.314;2023-03-23T10:54:57;15.00;99.90
17715;DHT22;8977;50.902;4.314;2023-03-23T10:57:28;15.00;99.90
17715;DHT22;8977;50.902;4.314;2023-03-23T11:00:00;15.00;99.90
17715;DHT22;8977;50.902;4.314;2023-03-23T11:02:32;15.10;99.90
17715;DHT22;8977;50.902;4.314;2023-03-23T11:05:06;15.00;99.90
17715;DHT22;8977;50.902;4.314;2023-03-23T11:07:35;15.10;99.90
17715;DHT22;8977;50.902;4.314;2023-03-23T11:10:17;15.20;99.90
17715;DHT22;8977;50.902;4.314;2023-03-23T11:12:46;15.30;99.90
17715;DHT22;8977;50.902;4.314;2023-03-23T11:15:28;15.20;99.90
17715;DHT22;8977;50.902;4.314;2023-03-23T11:17:57;15.40;99.90
17715;DHT22;8977;50.902;4.314;2023-03-23T11:20:25;15.40;99.90
17715;DHT22;8977;50.902;4.314;2023-03-23T11:22:54;15.50;99.90
17715;DHT22;8977;50.902;4.314;2023-03-23T11:25:23;15.60;99.90
17715;DHT22;8977;50.902;4.314;2023-03-23T11:27:51;15.60;99.90
17715;DHT22;8977;50.902;4.314;2023-03-23T11:30:25;15.50;99.90
17715;DHT22;8977;50.902;4.314;2023-03-23T11:32:53;15.50;99.90
17715;DHT22;8977;50.902;4.314;2023-03-23T11:35:23;15.60;99.90
17715;DHT22;8977;50.902;4.314;2023-03-23T11:37:53;15.60;99.90
17715;DHT22;8977;50.902;4.314;2023-03-23T11:40:23;15.60;99.90
17715;DHT22;8977;50.902;4.314;2023-03-23T11:42:58;15.50;99.90
17715;DHT22;8977;50.902;4.314;2023-03-23T11:45:35;15.50;99.90
17715;DHT22;8977;50.902;4.314;2023-03-23T11:48:18;15.50;99.90
17715;DHT22;8977;50.902;4.314;2023-03-23T11:50:51;15.50;99.90
17715;DHT22;8977;50.902;4.314;2023-03-23T11:53:33;15.50;99.90
17715;DHT22;8977;50.902;4.314;2023-03-23T11:56:11;15.60;99.90
17715;DHT22;8977;50.902;4.314;2023-03-23T11:58:39;15.60;99.90
17715;DHT22;8977;50.902;4.314;2023-03-23T12:01:12;15.70;99.90
17715;DHT22;8977;50.902;4.314;2023-03-23T12:04:08;15.80;99.90
17715;DHT22;8977;50.902;4.314;2023-03-23T12:06:48;15.80;99.90
17715;DHT22;8977;50.902;4.314;2023-03-23T12:09:26;15.90;99.90
17715;DHT22;8977;50.902;4.314;2023-03-23T12:12:07;15.90;99.90
17715;DHT22;8977;50.902;4.314;2023-03-23T12:14:41;16.00;99.90
17715;DHT22;8977;50.902;4.314;2023-03-23T12:17:19;16.10;99.90
17715;DHT22;8977;50.902;4.314;2023-03-23T12:19:56;16.10;99.90
17715;DHT22;8977;50.902;4.314;2023-03-23T12:22:35;16.10;99.90
17715;DHT22;8977;50.902;4.314;2023-03-23T12:25:14;16.20;99.90
17715;DHT22;8977;50.902;4.314;2023-03-23T12:27:51;16.20;99.90
17715;DHT22;8977;50.902;4.314;2023-03-23T12:30:29;16.30;99.90
17715;DHT22;8977;50.902;4.314;2023-03-23T12:33:13;16.40;99.90
17715;DHT22;8977;50.902;4.314;2023-03-23T12:35:51;16.40;99.90
17715;DHT22;8977;50.902;4.314;2023-03-23T12:38:58;16.40;99.90
17715;DHT22;8977;50.902;4.314;2023-03-23T12:41:33;16.50;99.90
17715;DHT22;8977;50.902;4.314;2023-03-23T12:44:06;16.50;99.90
17715;DHT22;8977;50.902;4.314;2023-03-23T12:46:47;16.50;99.90
17715;DHT22;8977;50.902;4.314;2023-03-23T12:49:19;16.60;99.90
17715;DHT22;8977;50.902;4.314;2023-03-23T12:51:51;16.60;99.90
17715;DHT22;8977;50.902;4.314;2023-03-23T12:54:24;16.60;99.90
17715;DHT22;8977;50.902;4.314;2023-03-23T12:56:56;16.70;99.90
17715;DHT22;8977;50.902;4.314;2023-03-23T12:59:34;16.90;99.90
17715;DHT22;8977;50.902;4.314;2023-03-23T13:02:07;16.90;99.90
17715;DHT22;8977;50.902;4.314;2023-03-23T13:04:40;16.80;99.90
17715;DHT22;8977;50.902;4.314;2023-03-23T13:07:13;16.80;99.90
17715;DHT22;8977;50.902;4.314;2023-03-23T13:09:48;16.70;99.90
17715;DHT22;8977;50.902;4.314;2023-03-23T13:12:15;16.80;99.90
17715;DHT22;8977;50.902;4.314;2023-03-23T13:14:50;16.70;99.90
17715;DHT22;8977;50.902;4.314;2023-03-23T13:17:37;16.60;99.90
17715;DHT22;8977;50.902;4.314;2023-03-23T13:20:32;16.50;99.90
17715;DHT22;8977;50.902;4.314;2023-03-23T13:23:07;16.50;99.90
17715;DHT22;8977;50.902;4.314;2023-03-23T13:25:46;16.50;99.90
17715;DHT22;8977;50.902;4.314;2023-03-23T13:28:16;16.70;99.90
17715;DHT22;8977;50.902;4.314;2023-03-23T13:31:12;16.80;99.90
17715;DHT22;8977;50.902;4.314;2023-03-23T13:33:45;17.10;99.90
17715;DHT22;8977;50.902;4.314;2023-03-23T13:36:14;17.10;99.90
17715;DHT22;8977;50.902;4.314;2023-03-23T13:38:47;17.30;99.90
17715;DHT22;8977;50.902;4.314;2023-03-23T13:41:17;17.30;99.90
17715;DHT22;8977;50.902;4.314;2023-03-23T13:43:45;17.40;99.90
17715;DHT22;8977;50.902;4.314;2023-03-23T13:46:27;17.30;99.90
17715;DHT22;8977;50.902;4.314;2023-03-23T13:49:15;17.30;99.90
17715;DHT22;8977;50.902;4.314;2023-03-23T13:52:14;17.10;99.90
17715;DHT22;8977;50.902;4.314;2023-03-23T13:54:44;17.10;99.90
17715;DHT22;8977;50.902;4.314;2023-03-23T13:57:25;17.00;99.90
17715;DHT22;8977;50.902;4.314;2023-03-23T13:59:57;17.00;99.90
17715;DHT22;8977;50.902;4.314;2023-03-23T14:02:33;17.00;99.90
17715;DHT22;8977;50.902;4.314;2023-03-23T14:05:26;16.90;99.90
17715;DHT22;8977;50.902;4.314;2023-03-23T14:07:57;16.90;99.90
17715;DHT22;8977;50.902;4.314;2023-03-23T14:10:32;16.80;99.90
17715;DHT22;8977;50.902;4.314;2023-03-23T14:13:01;16.80;99.90
17715;DHT22;8977;50.902;4.314;2023-03-23T14:15:29;16.90;99.90
17715;DHT22;8977;50.902;4.314;2023-03-23T14:18:02;17.00;99.90
17715;DHT22;8977;50.902;4.314;2023-03-23T14:20:32;17.00;99.90
17715;DHT22;8977;50.902;4.314;2023-03-23T14:23:00;17.00;99.90
17715;DHT22;8977;50.902;4.314;2023-03-23T14:25:29;17.10;99.90
17715;DHT22;8977;50.902;4.314;2023-03-23T14:27:56;17.00;99.90
17715;DHT22;8977;50.902;4.314;2023-03-23T14:30:24;17.10;99.90
17715;DHT22;8977;50.902;4.314;2023-03-23T14:32:52;17.10;99.90
17715;DHT22;8977;50.902;4.314;2023-03-23T14:35:26;17.10;99.90
17715;DHT22;8977;50.902;4.314;2023-03-23T14:37:54;17.00;99.90
17715;DHT22;8977;50.902;4.314;2023-03-23T14:40:22;16.90;99.90
17715;DHT22;8977;50.902;4.314;2023-03-23T14:42:50;16.80;99.90
17715;DHT22;8977;50.902;4.314;2023-03-23T14:45:21;16.70;99.90
17715;DHT22;8977;50.902;4.314;2023-03-23T14:47:50;16.70;99.90
17715;DHT22;8977;50.902;4.314;2023-03-23T14:50:27;16.70;99.90
17715;DHT22;8977;50.902;4.314;2023-03-23T14:53:07;16.70;99.90
17715;DHT22;8977;50.902;4.314;2023-03-23T14:55:36;16.70;99.90
17715;DHT22;8977;50.902;4.314;2023-03-23T14:58:07;16.70;99.90
17715;DHT22;8977;50.902;4.314;2023-03-23T15:00:37;16.70;99.90
17715;DHT22;8977;50.902;4.314;2023-03-23T15:03:07;16.60;99.90
17715;DHT22;8977;50.902;4.314;2023-03-23T15:05:41;16.50;99.90
17715;DHT22;8977;50.902;4.314;2023-03-23T15:08:13;16.50;99.90
17715;DHT22;8977;50.902;4.314;2023-03-23T15:10:41;16.50;99.90
17715;DHT22;8977;50.902;4.314;2023-03-23T15:13:11;16.60;99.90
17715;DHT22;8977;50.902;4.314;2023-03-23T15:15:39;16.60;99.90
17715;DHT22;8977;50.902;4.314;2023-03-23T15:18:29;16.50;99.90
17715;DHT22;8977;50.902;4.314;2023-03-23T15:20:58;16.50;99.90
17715;DHT22;8977;50.902;4.314;2023-03-23T15:23:34;16.50;99.90
17715;DHT22;8977;50.902;4.314;2023-03-23T15:26:06;16.50;99.90
17715;DHT22;8977;50.902;4.314;2023-03-23T15:28:39;16.60;99.90
17715;DHT22;8977;50.902;4.314;2023-03-23T15:31:06;16.50;99.90
17715;DHT22;8977;50.902;4.314;2023-03-23T15:33:34;16.50;99.90
17715;DHT22;8977;50.902;4.314;2023-03-23T15:36:08;16.50;99.90
17715;DHT22;8977;50.902;4.314;2023-03-23T15:38:36;16.60;99.90
17715;DHT22;8977;50.902;4.314;2023-03-23T15:41:05;16.50;99.90
17715;DHT22;8977;50.902;4.314;2023-03-23T15:43:33;16.50;99.90
17715;DHT22;8977;50.902;4.314;2023-03-23T15:46:02;16.50;99.90
17715;DHT22;8977;50.902;4.314;2023-03-23T15:48:31;16.40;99.90
17715;DHT22;8977;50.902;4.314;2023-03-23T15:51:01;16.40;99.90
17715;DHT22;8977;50.902;4.314;2023-03-23T15:53:32;16.30;99.90
17715;DHT22;8977;50.902;4.314;2023-03-23T15:56:00;16.40;99.90
17715;DHT22;8977;50.902;4.314;2023-03-23T15:58:28;16.40;99.90
17715;DHT22;8977;50.902;4.314;2023-03-23T16:00:56;16.40;99.90
17715;DHT22;8977;50.902;4.314;2023-03-23T16:03:26;16.30;99.90
17715;DHT22;8977;50.902;4.314;2023-03-23T16:05:55;16.30;99.90
17715;DHT22;8977;50.902;4.314;2023-03-23T16:08:24;16.40;99.90